createdAt,value
2019-01-03T00:02:41.459Z,0.62
2019-01-03T00:05:37.166Z,0.74
2019-01-03T00:08:31.628Z,0.51
2019-01-03T00:11:19.922Z,0.70
2019-01-03T00:14:12.618Z,0.59
2019-01-03T00:17:00.548Z,0.32
2019-01-03T00:19:48.634Z,0.38
2019-01-03T00:22:41.151Z,0.41
2019-01-03T00:25:29.108Z,0.45
2019-01-03T00:28:36.059Z,0.65
2019-01-03T00:31:34.653Z,0.67
2019-01-03T00:34:23.339Z,0.66
2019-01-03T00:37:13.622Z,0.81
2019-01-03T00:40:03.311Z,0.72
2019-01-03T00:42:51.365Z,0.61
2019-01-03T00:45:39.801Z,0.66
2019-01-03T00:48:34.947Z,0.61
2019-01-03T00:51:22.872Z,0.59
2019-01-03T00:54:16.545Z,-1.06
2019-01-03T00:57:08.849Z,0.86
2019-01-03T01:00:07.215Z,0.75
2019-01-03T01:02:53.610Z,0.68
2019-01-03T01:05:41.657Z,1.01
2019-01-03T01:08:39.652Z,0.68
2019-01-03T01:11:30.643Z,0.90
2019-01-03T01:14:19.231Z,0.59
2019-01-03T01:17:20.252Z,0.77
2019-01-03T01:20:15.997Z,0.84
2019-01-03T01:23:05.200Z,0.89
2019-01-03T01:25:53.829Z,0.94
2019-01-03T01:28:58.205Z,0.74
2019-01-03T01:32:02.552Z,0.84
2019-01-03T01:34:51.034Z,0.58
2019-01-03T01:37:43.509Z,0.71
2019-01-03T01:40:32.721Z,0.75
2019-01-03T01:43:22.026Z,0.68
2019-01-03T01:46:10.272Z,0.54
2019-01-03T01:49:11.908Z,0.58
2019-01-03T01:52:10.010Z,0.69
2019-01-03T01:55:02.245Z,0.67
2019-01-03T01:58:03.585Z,0.79
2019-01-03T02:00:51.610Z,0.54
2019-01-03T02:03:50.206Z,-0.96
2019-01-03T02:06:32.009Z,0.75
2019-01-03T02:09:19.412Z,0.81
2019-01-03T02:12:11.461Z,0.51
2019-01-03T02:14:55.776Z,0.53
2019-01-03T02:17:44.258Z,0.62
2019-01-03T02:20:35.589Z,0.47
2019-01-03T02:23:37.201Z,0.41
2019-01-03T02:26:38.758Z,0.74
2019-01-03T02:29:26.458Z,0.58
2019-01-03T02:32:11.049Z,0.70
2019-01-03T02:34:59.671Z,0.56
2019-01-03T02:37:47.737Z,0.53
2019-01-03T02:40:41.528Z,0.24
2019-01-03T02:43:37.297Z,0.44
2019-01-03T02:46:35.804Z,0.34
2019-01-03T02:49:25.629Z,0.26
2019-01-03T02:52:13.883Z,0.38
2019-01-03T02:55:03.514Z,0.37
2019-01-03T02:58:01.813Z,0.40
2019-01-03T03:00:53.688Z,0.53
2019-01-03T03:03:58.635Z,0.25
2019-01-03T03:06:46.576Z,0.36
2019-01-03T03:09:34.607Z,0.35
2019-01-03T03:12:27.001Z,0.18
2019-01-03T03:15:28.582Z,0.23
2019-01-03T03:18:12.355Z,0.14
2019-01-03T03:21:01.564Z,0.13
2019-01-03T03:23:57.447Z,0.31
2019-01-03T03:26:49.828Z,0.23
2019-01-03T03:29:48.296Z,0.27
2019-01-03T03:32:36.239Z,0.04
2019-01-03T03:35:36.662Z,0.11
2019-01-03T03:38:28.950Z,0.11
2019-01-03T03:41:18.348Z,0.10
2019-01-03T03:44:14.146Z,0.24
2019-01-03T03:47:00.676Z,0.08
2019-01-03T03:50:08.227Z,0.14
2019-01-03T03:53:09.712Z,0.28
2019-01-03T03:55:59.163Z,0.34
2019-01-03T03:58:47.106Z,0.04
2019-01-03T04:01:45.820Z,0.20
2019-01-03T04:04:47.234Z,0.18
2019-01-03T04:07:37.253Z,-0.07
2019-01-03T04:10:25.465Z,0.29
2019-01-03T04:13:14.980Z,0.15
2019-01-03T04:16:03.716Z,0.27
2019-01-03T04:18:53.305Z,0.28
2019-01-03T04:21:45.670Z,0.12
2019-01-03T04:24:35.265Z,-0.01
2019-01-03T04:27:23.320Z,-0.20
2019-01-03T04:30:18.825Z,-0.16
2019-01-03T04:33:08.378Z,0.00
2019-01-03T04:35:56.960Z,-0.09
2019-01-03T04:38:49.558Z,0.17
2019-01-03T04:41:31.866Z,0.24
2019-01-03T04:44:36.293Z,-0.01
2019-01-03T04:47:23.446Z,-0.19
2019-01-03T04:50:11.608Z,-0.20
2019-01-03T04:53:07.391Z,-0.15
2019-01-03T04:55:59.598Z,-0.38
2019-01-03T04:58:47.794Z,-0.07
2019-01-03T05:02:03.942Z,-0.31
2019-01-03T05:04:59.786Z,-0.31
2019-01-03T05:07:47.701Z,-0.47
2019-01-03T05:10:37.296Z,-0.55
2019-01-03T05:13:32.831Z,-0.58
2019-01-03T05:16:21.225Z,-0.24
2019-01-03T05:19:09.034Z,-0.39
2019-01-03T05:22:01.575Z,-0.26
2019-01-03T05:25:08.750Z,-0.40
2019-01-03T05:28:11.968Z,-0.49
2019-01-03T05:31:04.382Z,-0.35
2019-01-03T05:33:52.628Z,-0.25
2019-01-03T05:36:34.904Z,-0.65
2019-01-03T05:39:25.642Z,-0.55
2019-01-03T05:42:14.889Z,-0.70
2019-01-03T05:45:09.281Z,-0.61
2019-01-03T05:48:07.727Z,-0.25
2019-01-03T05:51:12.344Z,-0.32
2019-01-03T05:54:00.574Z,-0.45
2019-01-03T06:00:27.937Z,-0.46
2019-01-03T06:03:18.102Z,-0.36
2019-01-03T06:06:08.002Z,-0.31
2019-01-03T06:09:06.286Z,-0.46
2019-01-03T06:11:49.825Z,-0.27
2019-01-03T06:14:42.444Z,-0.34
2019-01-03T06:17:30.660Z,-0.46
2019-01-03T06:20:38.532Z,-0.39
2019-01-03T06:23:29.962Z,-0.35
2019-01-03T06:26:19.281Z,-0.49
2019-01-03T06:29:23.784Z,-0.40
2019-01-03T06:32:29.551Z,-0.01
2019-01-03T06:35:19.379Z,-0.32
2019-01-03T06:38:18.191Z,-0.32
2019-01-03T06:41:06.309Z,-0.28
2019-01-03T06:43:59.696Z,-0.33
2019-01-03T06:47:00.100Z,-0.21
2019-01-03T06:49:47.981Z,-0.28
2019-01-03T06:52:35.056Z,-0.40
2019-01-03T06:55:39.418Z,-0.83
2019-01-03T06:58:28.892Z,-0.53
2019-01-03T07:01:36.739Z,-0.70
2019-01-03T07:04:25.219Z,-0.61
2019-01-03T07:07:14.822Z,-0.57
2019-01-03T07:10:08.400Z,-0.45
2019-01-03T07:12:56.439Z,-0.38
2019-01-03T07:15:44.853Z,-0.17
2019-01-03T07:18:29.913Z,-0.47
2019-01-03T07:21:27.381Z,-0.42
2019-01-03T07:24:33.896Z,-0.13
2019-01-03T07:27:23.741Z,-0.67
2019-01-03T07:30:19.095Z,-0.42
2019-01-03T07:33:14.671Z,-0.50
2019-01-03T07:36:02.863Z,-0.42
2019-01-03T07:38:51.584Z,-0.27
2019-01-03T07:41:41.828Z,-0.47
2019-01-03T07:44:34.833Z,-0.23
2019-01-03T07:47:30.914Z,-0.68
2019-01-03T07:50:29.124Z,-0.82
2019-01-03T07:53:21.159Z,-0.59
2019-01-03T07:56:25.922Z,-0.76
2019-01-03T07:59:17.345Z,-0.73
2019-01-03T08:02:12.832Z,-0.48
2019-01-03T08:05:01.318Z,-0.31
2019-01-03T08:07:53.997Z,-0.38
2019-01-03T08:10:42.028Z,-0.32
2019-01-03T08:13:37.142Z,-0.20
2019-01-03T08:16:29.335Z,-0.30
2019-01-03T08:19:19.177Z,-0.13
2019-01-03T08:22:06.919Z,-0.40
2019-01-03T08:25:02.236Z,-0.18
2019-01-03T08:27:50.037Z,-0.29
2019-01-03T08:30:37.207Z,-0.56
2019-01-03T08:33:22.756Z,-0.50
2019-01-03T08:36:25.059Z,-0.57
2019-01-03T08:39:17.251Z,-0.34
2019-01-03T08:42:10.157Z,-0.21
2019-01-03T08:44:58.594Z,-0.47
2019-01-03T08:47:53.468Z,-0.39
2019-01-03T08:50:34.589Z,-0.35
2019-01-03T08:53:21.782Z,-0.47
2019-01-03T08:56:23.087Z,-0.40
2019-01-03T08:59:12.537Z,-0.38
2019-01-03T09:02:00.965Z,0.07
2019-01-03T09:04:49.029Z,-0.14
2019-01-03T09:07:51.176Z,0.21
2019-01-03T09:10:46.481Z,0.21
2019-01-03T09:13:54.825Z,0.08
2019-01-03T09:16:50.694Z,0.28
2019-01-03T09:19:38.739Z,0.25
2019-01-03T09:22:34.148Z,0.13
2019-01-03T09:25:29.843Z,0.67
2019-01-03T09:28:26.537Z,0.55
2019-01-03T09:31:14.882Z,0.41
2019-01-03T09:34:07.125Z,0.60
2019-01-03T09:36:53.858Z,0.91
2019-01-03T09:39:41.664Z,0.96
2019-01-03T09:42:40.597Z,1.03
2019-01-03T09:45:11.109Z,1.16
2019-01-03T09:47:41.713Z,1.21
2019-01-03T09:50:12.199Z,1.10
2019-01-03T09:52:42.747Z,1.21
2019-01-03T09:55:13.069Z,0.94
2019-01-03T09:57:43.500Z,1.30
2019-01-03T10:00:14.018Z,1.20
2019-01-03T10:02:44.925Z,1.58
2019-01-03T10:05:15.394Z,1.56
2019-01-03T10:07:46.179Z,1.58
2019-01-03T10:10:17.059Z,1.54
2019-01-03T10:12:48.076Z,1.17
2019-01-03T10:15:18.520Z,1.25
2019-01-03T10:17:49.175Z,1.33
2019-01-03T10:20:19.709Z,1.23
2019-01-03T10:22:50.009Z,1.47
2019-01-03T10:25:20.425Z,1.64
2019-01-03T10:27:50.771Z,1.38
2019-01-03T10:30:21.442Z,1.37
2019-01-03T10:32:51.806Z,1.21
2019-01-03T10:35:22.551Z,1.70
2019-01-03T10:37:53.139Z,1.81
2019-01-03T10:40:23.693Z,1.55
2019-01-03T10:42:54.011Z,1.49
2019-01-03T10:45:24.611Z,1.60
2019-01-03T10:47:54.940Z,1.65
2019-01-03T10:50:25.400Z,1.55
2019-01-03T10:52:55.767Z,1.49
2019-01-03T10:55:27.333Z,1.48
2019-01-03T10:57:57.699Z,1.93
2019-01-03T11:00:28.472Z,2.01
2019-01-03T11:02:59.177Z,2.14
2019-01-03T11:05:29.833Z,2.41
2019-01-03T11:08:00.106Z,2.44
2019-01-03T11:10:30.577Z,2.35
2019-01-03T11:13:01.234Z,2.50
2019-01-03T11:15:31.829Z,2.29
2019-01-03T11:18:02.100Z,2.51
2019-01-03T11:20:32.753Z,2.16
2019-01-03T11:23:03.109Z,2.15
2019-01-03T11:25:33.574Z,2.51
2019-01-03T11:28:03.998Z,2.51
2019-01-03T11:30:34.548Z,2.75
2019-01-03T11:33:05.223Z,2.79
2019-01-03T11:35:35.654Z,2.58
2019-01-03T11:38:06.305Z,2.73
2019-01-03T11:40:36.948Z,2.92
2019-01-03T11:43:07.956Z,2.98
2019-01-03T11:45:38.262Z,2.97
2019-01-03T11:48:08.884Z,2.88
2019-01-03T11:50:39.245Z,2.39
2019-01-03T11:53:09.759Z,2.60
2019-01-03T11:55:40.238Z,2.42
2019-01-03T11:58:14.330Z,2.61
2019-01-03T12:00:44.585Z,2.48
2019-01-03T12:03:15.287Z,2.26
2019-01-03T12:05:45.841Z,1.90
2019-01-03T12:08:16.437Z,1.71
2019-01-03T12:10:46.708Z,1.61
2019-01-03T12:13:17.610Z,1.43
2019-01-03T12:15:48.116Z,1.50
2019-01-03T12:18:18.649Z,1.32
2019-01-03T12:20:49.067Z,1.43
2019-01-03T12:23:19.475Z,1.32
2019-01-03T12:25:49.857Z,0.97
2019-01-03T12:28:20.688Z,0.78
2019-01-03T12:30:51.245Z,0.92
2019-01-03T12:33:21.857Z,0.90
2019-01-03T12:35:52.293Z,0.54
2019-01-03T12:38:23.920Z,0.61
2019-01-03T12:40:54.638Z,0.70
2019-01-03T12:43:25.716Z,0.86
2019-01-03T12:45:57.067Z,0.76
2019-01-03T12:48:27.999Z,0.77
2019-01-03T12:50:58.372Z,0.70
2019-01-03T12:53:28.684Z,0.62
2019-01-03T12:55:59.101Z,0.49
2019-01-03T12:58:29.731Z,0.45
2019-01-03T13:01:00.039Z,0.75
2019-01-03T13:03:30.333Z,0.58
2019-01-03T13:06:01.150Z,0.93
2019-01-03T13:08:31.478Z,0.73
2019-01-03T13:11:01.864Z,0.70
2019-01-03T13:13:32.593Z,1.14
2019-01-03T13:16:03.069Z,1.28
2019-01-03T13:18:33.669Z,1.44
2019-01-03T13:21:03.993Z,1.35
2019-01-03T13:23:34.269Z,1.55
2019-01-03T13:26:04.946Z,1.81
2019-01-03T13:28:35.273Z,1.86
2019-01-03T13:31:05.616Z,1.93
2019-01-03T13:33:36.225Z,2.05
2019-01-03T13:36:07.155Z,1.67
2019-01-03T13:38:37.446Z,1.72
2019-01-03T13:41:08.126Z,1.87
2019-01-03T13:43:38.894Z,1.79
2019-01-03T13:46:09.503Z,1.83
2019-01-03T13:48:39.767Z,1.92
2019-01-03T13:51:10.433Z,1.74
2019-01-03T13:53:41.192Z,1.56
2019-01-03T13:56:11.607Z,1.39
2019-01-03T13:58:42.107Z,1.23
2019-01-03T14:01:12.670Z,0.90
2019-01-03T14:03:43.300Z,1.11
2019-01-03T14:06:13.721Z,0.79
2019-01-03T14:08:44.362Z,1.04
2019-01-03T14:11:14.728Z,1.08
2019-01-03T14:13:45.454Z,0.87
2019-01-03T14:16:15.775Z,0.82
2019-01-03T14:18:46.065Z,0.93
2019-01-03T14:21:17.075Z,0.94
2019-01-03T14:23:48.544Z,0.80
2019-01-03T14:26:19.257Z,0.64
2019-01-03T14:28:50.022Z,0.53
2019-01-03T14:31:20.810Z,0.50
2019-01-03T14:33:51.077Z,0.26
2019-01-03T14:36:21.791Z,0.16
2019-01-03T14:38:52.463Z,0.49
2019-01-03T14:41:22.909Z,0.69
2019-01-03T14:43:53.451Z,0.57
2019-01-03T14:46:24.919Z,0.20
2019-01-03T14:48:55.898Z,0.14
2019-01-03T14:51:26.540Z,0.10
2019-01-03T14:53:56.985Z,0.16
2019-01-03T14:56:27.398Z,0.06
2019-01-03T14:58:58.317Z,0.08
2019-01-03T15:01:28.597Z,-0.15
2019-01-03T15:03:59.175Z,-0.34
2019-01-03T15:06:29.545Z,-0.61
2019-01-03T15:09:00.248Z,-0.59
2019-01-03T15:11:30.591Z,-0.77
2019-01-03T15:14:01.723Z,-0.78
2019-01-03T15:16:32.191Z,-0.59
2019-01-03T15:19:02.949Z,-1.02
2019-01-03T15:21:33.221Z,-1.00
2019-01-03T15:24:03.642Z,-0.93
2019-01-03T15:26:34.280Z,-0.69
2019-01-03T15:29:04.570Z,-0.73
2019-01-03T15:31:35.215Z,-0.78
2019-01-03T15:34:05.760Z,-1.04
2019-01-03T15:36:36.553Z,-1.33
2019-01-03T15:39:07.133Z,-1.11
2019-01-03T15:41:37.517Z,-0.96
2019-01-03T15:44:08.432Z,-1.11
2019-01-03T15:46:38.770Z,-1.27
2019-01-03T15:49:09.714Z,-1.32
2019-01-03T15:51:39.991Z,-1.34
2019-01-03T15:54:10.672Z,-1.71
2019-01-03T15:56:41.195Z,-1.74
2019-01-03T15:59:11.744Z,-1.85
2019-01-03T16:01:42.425Z,-1.75
2019-01-03T16:04:13.323Z,-1.93
2019-01-03T16:06:43.640Z,-2.10
2019-01-03T16:09:15.413Z,-2.06
2019-01-03T16:11:45.975Z,-2.05
2019-01-03T16:14:20.283Z,-1.93
2019-01-03T16:16:50.615Z,-2.05
2019-01-03T16:19:21.482Z,-2.02
2019-01-03T16:21:51.763Z,-2.03
2019-01-03T16:24:22.475Z,-2.02
2019-01-03T16:26:53.223Z,-2.04
2019-01-03T16:29:23.702Z,-2.21
2019-01-03T16:31:54.044Z,-2.19
2019-01-03T16:34:24.657Z,-2.44
2019-01-03T16:36:55.295Z,-2.24
2019-01-03T16:39:25.570Z,-2.31
2019-01-03T16:41:56.252Z,-2.17
2019-01-03T16:44:27.024Z,-2.25
2019-01-03T16:46:57.344Z,-2.36
2019-01-03T16:49:28.169Z,-2.30
2019-01-03T16:51:59.025Z,-2.43
2019-01-03T16:54:29.301Z,-2.25
2019-01-03T16:56:59.974Z,-2.24
2019-01-03T16:59:30.261Z,-2.46
2019-01-03T17:02:01.044Z,-2.50
2019-01-03T17:04:31.586Z,-2.38
2019-01-03T17:07:02.197Z,-4.38
2019-01-03T17:09:32.898Z,-2.44
2019-01-03T17:12:03.571Z,-2.46
2019-01-03T17:14:34.038Z,-2.46
2019-01-03T17:17:04.530Z,-2.62
2019-01-03T17:19:35.333Z,-2.41
2019-01-03T17:22:05.637Z,-2.68
2019-01-03T17:24:36.447Z,-2.67
2019-01-03T17:27:06.754Z,-2.54
2019-01-03T17:29:37.426Z,-2.67
2019-01-03T17:32:08.015Z,-2.64
2019-01-03T17:34:38.366Z,-2.60
2019-01-03T17:37:08.790Z,-2.64
2019-01-03T17:39:39.711Z,-2.37
2019-01-03T17:42:10.080Z,-2.55
2019-01-03T17:44:40.777Z,-2.55
2019-01-03T17:47:11.594Z,-2.52
2019-01-03T17:49:41.959Z,-2.76
2019-01-03T17:52:12.509Z,-2.83
2019-01-03T17:54:43.110Z,-3.00
2019-01-03T17:57:13.506Z,-2.91
2019-01-03T17:59:43.870Z,-2.96
2019-01-03T18:02:14.198Z,-2.98
2019-01-03T18:04:44.484Z,-3.22
2019-01-03T18:07:15.326Z,-3.03
2019-01-03T18:09:45.837Z,-3.08
2019-01-03T18:12:16.163Z,-3.06
2019-01-03T18:14:47.158Z,-3.17
2019-01-03T18:17:18.054Z,-3.08
2019-01-03T18:19:48.347Z,-3.14
2019-01-03T18:22:18.973Z,-3.30
2019-01-03T18:24:49.369Z,-3.23
2019-01-03T18:27:20.029Z,-2.96
2019-01-03T18:29:50.468Z,-3.11
2019-01-03T18:32:20.798Z,-3.12
2019-01-03T18:34:51.502Z,-3.10
2019-01-03T18:37:22.420Z,-2.97
2019-01-03T18:39:52.746Z,-3.02
2019-01-03T18:42:23.516Z,-3.12
2019-01-03T18:44:54.309Z,-3.06
2019-01-03T18:47:24.953Z,-3.16
2019-01-03T18:49:55.494Z,-3.23
2019-01-03T18:52:26.429Z,-3.11
2019-01-03T18:54:56.940Z,-3.18
2019-01-03T18:57:27.574Z,-3.03
2019-01-03T18:59:57.967Z,-3.09
2019-01-03T19:02:28.517Z,-3.06
2019-01-03T19:04:59.064Z,-3.10
2019-01-03T19:07:29.697Z,-2.96
2019-01-03T19:10:00.258Z,-3.08
2019-01-03T19:12:30.901Z,-3.16
2019-01-03T19:15:01.698Z,-3.18
2019-01-03T19:17:32.256Z,-3.04
2019-01-03T19:20:03.748Z,-3.14
2019-01-03T19:22:34.049Z,-3.25
2019-01-03T19:25:04.901Z,-3.17
2019-01-03T19:27:35.593Z,-2.95
2019-01-03T19:30:06.567Z,-3.21
2019-01-03T19:32:36.847Z,-3.29
2019-01-03T19:35:08.642Z,-3.17
2019-01-03T19:37:39.057Z,-3.03
2019-01-03T19:40:11.982Z,-3.03
2019-01-03T19:42:43.153Z,-3.26
2019-01-03T19:45:13.951Z,-3.38
2019-01-03T19:47:44.443Z,-3.24
2019-01-03T19:50:17.911Z,-3.20
2019-01-03T19:52:48.145Z,-3.26
2019-01-03T19:55:19.064Z,-3.00
2019-01-03T19:57:49.630Z,-3.09
2019-01-03T20:00:19.986Z,-3.16
2019-01-03T20:02:50.476Z,-3.23
2019-01-03T20:05:21.147Z,-3.19
2019-01-03T20:07:54.517Z,-3.19
2019-01-03T20:10:25.012Z,-3.02
2019-01-03T20:12:55.326Z,-3.12
2019-01-03T20:15:26.036Z,-3.25
2019-01-03T20:17:56.564Z,-3.10
2019-01-03T20:20:27.121Z,-2.99
2019-01-03T20:22:57.788Z,-2.93
2019-01-03T20:25:28.826Z,-3.01
2019-01-03T20:27:59.114Z,-3.21
2019-01-03T20:30:29.832Z,-3.16
2019-01-03T20:33:00.512Z,-3.20
2019-01-03T20:35:30.817Z,-3.18
2019-01-03T20:38:01.309Z,-3.23
2019-01-03T20:40:32.205Z,-3.12
2019-01-03T20:43:02.598Z,-3.25
2019-01-03T20:45:33.004Z,-3.29
2019-01-03T20:48:03.727Z,-3.31
2019-01-03T20:50:34.389Z,-3.13
2019-01-03T20:53:04.677Z,-3.10
2019-01-03T20:55:35.579Z,-3.09
2019-01-03T20:58:06.408Z,-3.16
2019-01-03T21:00:36.947Z,-3.14
2019-01-03T21:03:07.703Z,-3.33
2019-01-03T21:05:38.695Z,-3.31
2019-01-03T21:08:08.986Z,-3.01
2019-01-03T21:10:39.757Z,-3.36
2019-01-03T21:13:10.085Z,-3.21
2019-01-03T21:15:41.110Z,-3.33
2019-01-03T21:18:11.538Z,-3.13
2019-01-03T21:20:42.215Z,-3.40
2019-01-03T21:23:12.576Z,-3.44
2019-01-03T21:25:43.387Z,-3.12
2019-01-03T21:28:13.682Z,-5.13
2019-01-03T21:30:44.650Z,-3.12
2019-01-03T21:33:16.327Z,-3.44
2019-01-03T21:35:47.002Z,-3.38
2019-01-03T21:38:17.367Z,-3.20
2019-01-03T21:40:48.296Z,-3.11
2019-01-03T21:43:18.568Z,-3.14
2019-01-03T21:45:49.396Z,-3.36
2019-01-03T21:48:19.693Z,-3.20
2019-01-03T21:50:50.466Z,-3.08
2019-01-03T21:53:20.931Z,-3.08
2019-01-03T21:55:51.448Z,-3.08
2019-01-03T21:58:21.855Z,-3.26
2019-01-03T22:00:52.640Z,-3.25
2019-01-03T22:03:22.919Z,-3.19
2019-01-03T22:05:53.576Z,-3.07
2019-01-03T22:08:24.420Z,-2.96
2019-01-03T22:10:54.728Z,-3.28
2019-01-03T22:13:24.996Z,-2.91
2019-01-03T22:15:56.023Z,-2.97
2019-01-03T22:18:26.602Z,-2.94
2019-01-03T22:20:57.478Z,-3.28
2019-01-03T22:23:27.762Z,-3.32
2019-01-03T22:25:58.328Z,-3.17
2019-01-03T22:28:29.059Z,-2.89
2019-01-03T22:30:59.801Z,-3.00
2019-01-03T22:33:30.168Z,-3.33
2019-01-03T22:36:01.153Z,-3.36
2019-01-03T22:38:31.697Z,-3.19
2019-01-03T22:41:02.013Z,-3.02
2019-01-03T22:43:32.698Z,-3.30
2019-01-03T22:46:03.529Z,-3.36
2019-01-03T22:48:33.986Z,-3.31
2019-01-03T22:51:04.260Z,-3.61
2019-01-03T22:53:34.809Z,-3.61
2019-01-03T22:56:05.198Z,-3.64
2019-01-03T22:58:35.947Z,-3.54
2019-01-03T23:01:07.150Z,-3.33
2019-01-03T23:03:38.158Z,-3.46
2019-01-03T23:06:08.889Z,-3.48
2019-01-03T23:08:39.388Z,-3.70
2019-01-03T23:11:10.064Z,-3.80
2019-01-03T23:13:40.871Z,-3.61
2019-01-03T23:16:11.259Z,-3.54
2019-01-03T23:18:42.036Z,-3.55
2019-01-03T23:21:12.288Z,-3.85
2019-01-03T23:23:42.919Z,-3.82
2019-01-03T23:26:13.291Z,-3.67
2019-01-03T23:28:43.607Z,-3.69
2019-01-03T23:31:14.289Z,-3.76
2019-01-03T23:33:45.975Z,-3.72
2019-01-03T23:36:16.283Z,-3.78
2019-01-03T23:38:47.067Z,-3.72
2019-01-03T23:41:17.747Z,-3.46
2019-01-03T23:43:48.130Z,-3.68
2019-01-03T23:46:18.773Z,-3.56
2019-01-03T23:48:49.564Z,-3.61
2019-01-03T23:51:19.877Z,-3.70
2019-01-03T23:53:50.262Z,-3.64
2019-01-03T23:56:20.723Z,-3.74
2019-01-03T23:58:51.264Z,-3.73
